Time;durP1;ratioP1;P1;durP2;ratioP2;P2;SDS_P1;SDS_P2;PMS_P1;PMS_P2;Temp;Humidity;BMP_temperature;BMP_pressure;BME280_temperature;BME280_humidity;BME280_pressure;Samples;Min_cycle;Max_cycle;Signal;HPM_P1;HPM_P2
2021/12/09 00:01:25;;;;;;;;;3.00;3.00;;;;;5.07;64.17;99741.88;5097877;27;45728;-62
2021/12/09 00:03:56;;;;;;;;;3.50;2.75;;;;;5.07;64.00;99741.88;5079681;27;45423;-62
2021/12/09 00:06:25;;;;;;;;;4.00;3.00;;;;;5.08;64.16;99740.94;5079340;27;45525;-62
2021/12/09 00:08:52;;;;;;;;;4.00;3.00;;;;;5.08;64.06;99733.13;5097483;27;45323;-61
2021/12/09 00:11:17;;;;;;;;;5.75;2.75;;;;;5.05;64.21;99734.19;5097512;27;45802;-62
2021/12/09 00:13:43;;;;;;;;;4.50;2.50;;;;;5.03;64.38;99736.06;5096767;27;45410;-62
2021/12/09 00:16:08;;;;;;;;;3.50;2.00;;;;;5.02;64.30;99738.81;5078183;27;66964;-61
2021/12/09 00:18:33;;;;;;;;;4.75;4.00;;;;;5.00;64.50;99746.75;5096474;27;67155;-62
2021/12/09 00:20:59;;;;;;;;;3.75;3.00;;;;;5.00;64.27;99746.75;5096648;27;64995;-62
2021/12/09 00:23:24;;;;;;;;;2.75;2.00;;;;;5.00;64.54;99748.50;5097608;27;45429;-62
2021/12/09 00:25:49;;;;;;;;;1.75;1.75;;;;;4.97;64.41;99738.34;5096437;27;64894;-62
2021/12/09 00:28:15;;;;;;;;;3.00;2.00;;;;;4.95;64.38;99742.84;5096492;27;67422;-60
2021/12/09 00:30:41;;;;;;;;;3.00;3.00;;;;;4.92;64.55;99748.28;5097171;27;45316;-62
2021/12/09 00:33:06;;;;;;;;;3.00;2.00;;;;;4.87;64.32;99744.25;5097320;27;45454;-62
2021/12/09 00:35:42;;;;;;;;;3.25;2.00;;;;;4.83;64.63;99745.44;5097218;27;45280;-62
2021/12/09 00:38:09;;;;;;;;;1.00;1.00;;;;;4.81;64.65;99749.13;5097107;27;45919;-62
2021/12/09 00:40:35;;;;;;;;;2.00;2.00;;;;;4.78;64.70;99751.94;5097045;27;45480;-62
2021/12/09 00:43:01;;;;;;;;;1.75;1.50;;;;;4.75;64.82;99750.44;5078784;27;45507;-62
2021/12/09 00:45:26;;;;;;;;;3.50;2.00;;;;;4.70;64.78;99745.56;5078944;27;45283;-62
2021/12/09 00:47:52;;;;;;;;;8.00;1.25;;;;;4.68;64.96;99751.84;5078789;27;46068;-62
2021/12/09 00:50:18;;;;;;;;;1.25;1.25;;;;;4.63;64.99;99746.97;5096084;27;64362;-62
2021/12/09 00:52:43;;;;;;;;;3.00;1.50;;;;;4.59;64.90;99748.16;5096982;27;45331;-62
2021/12/09 00:55:09;;;;;;;;;2.75;2.50;;;;;4.55;65.01;99762.31;5096289;27;62834;-62
2021/12/09 00:57:35;;;;;;;;;2.00;2.00;;;;;4.50;64.78;99765.28;5078380;27;46351;-62
2021/12/09 01:00:03;;;;;;;;;1.50;1.00;;;;;4.44;65.03;99756.19;5078356;27;45363;-61
2021/12/09 01:02:28;;;;;;;;;2.00;2.00;;;;;4.42;65.28;99759.84;5097004;27;45157;-62
2021/12/09 01:04:54;;;;;;;;;2.75;1.00;;;;;4.39;65.04;99770.47;5096821;27;45313;-62
2021/12/09 01:07:19;;;;;;;;;1.25;1.25;;;;;4.36;65.37;99768.09;5095855;27;68878;-62
2021/12/09 01:09:44;;;;;;;;;2.25;1.75;;;;;4.32;65.50;99770.09;5095811;27;64737;-62
2021/12/09 01:12:10;;;;;;;;;1.50;1.50;;;;;4.29;65.74;99768.53;5096771;27;45541;-62
2021/12/09 01:14:39;;;;;;;;;3.00;2.00;;;;;4.26;65.70;99765.38;5078457;27;45579;-62
2021/12/09 01:17:06;;;;;;;;;1.50;1.50;;;;;4.23;65.91;99769.03;5096579;27;46374;-62
2021/12/09 01:19:31;;;;;;;;;3.00;2.00;;;;;4.22;65.99;99774.31;5096436;27;45272;-62
2021/12/09 01:21:57;;;;;;;;;1.25;0.50;;;;;4.19;66.04;99771.97;5096638;27;45289;-62
2021/12/09 01:24:22;;;;;;;;;1.75;1.00;;;;;4.15;66.06;99777.38;5096076;27;59474;-62
2021/12/09 01:26:49;;;;;;;;;1.50;1.50;;;;;4.14;66.19;99772.31;5095533;27;68452;-62
2021/12/09 01:29:19;;;;;;;;;1.75;1.00;;;;;4.13;66.30;99781.06;5096529;27;45807;-62
2021/12/09 01:31:53;;;;;;;;;1.00;1.00;;;;;4.10;66.24;99789.88;5096693;27;45381;-62
2021/12/09 01:34:20;;;;;;;;;0.00;0.00;;;;;4.09;66.19;99782.22;5079680;27;45458;-62
2021/12/09 01:36:48;;;;;;;;;2.25;1.00;;;;;4.06;66.47;99778.06;5096303;27;46519;-62
2021/12/09 01:39:13;;;;;;;;;2.25;2.00;;;;;4.06;66.49;99785.03;5099907;27;45228;-62
2021/12/09 01:41:38;;;;;;;;;1.00;1.00;;;;;4.04;66.25;99786.91;5065169;27;45249;-62
2021/12/09 01:44:05;;;;;;;;;2.75;2.00;;;;;4.01;66.33;99794.00;5099058;27;66555;-61
2021/12/09 01:46:30;;;;;;;;;3.00;3.00;;;;;3.97;66.22;99794.34;5098961;27;46237;-62
2021/12/09 01:48:56;;;;;;;;;7.75;3.25;;;;;3.93;65.92;99795.50;5099381;27;63626;-62
2021/12/09 01:51:21;;;;;;;;;6.25;4.50;;;;;3.90;65.96;99799.16;5100134;27;45476;-61
2021/12/09 01:53:46;;;;;;;;;9.25;8.25;;;;;3.87;65.92;99796.75;5100087;27;45571;-62
2021/12/09 01:56:20;;;;;;;;;13.00;10.25;;;;;3.82;66.31;99797.13;5099032;27;67173;-62
2021/12/09 01:58:46;;;;;;;;;15.50;11.25;;;;;3.81;65.98;99807.59;5099650;27;45245;-61
2021/12/09 02:01:11;;;;;;;;;17.00;12.75;;;;;3.79;66.21;99796.50;5099805;27;45256;-62
2021/12/09 02:03:36;;;;;;;;;22.50;13.00;;;;;3.77;66.03;99806.16;5099393;27;50560;-62
2021/12/09 02:06:02;;;;;;;;;15.25;11.50;;;;;3.76;66.28;99807.94;5098698;27;69275;-62
2021/12/09 02:08:28;;;;;;;;;14.25;12.00;;;;;3.78;66.21;99815.63;5081329;27;45455;-62
2021/12/09 02:10:53;;;;;;;;;20.50;13.50;;;;;3.78;66.29;99816.47;5098939;27;60634;-62
2021/12/09 02:13:19;;;;;;;;;22.50;16.50;;;;;3.76;66.63;99818.34;5098916;27;45398;-62
2021/12/09 02:15:45;;;;;;;;;16.50;11.25;;;;;3.75;66.68;99808.88;5099530;27;45450;-62
2021/12/09 02:18:12;;;;;;;;;16.50;14.00;;;;;3.74;66.75;99811.56;5081169;27;45362;-62
2021/12/09 02:20:38;;;;;;;;;26.75;18.50;;;;;3.75;66.55;99815.84;5081283;27;45318;-62
2021/12/09 02:23:08;;;;;;;;;23.50;19.25;;;;;3.75;66.30;99810.63;5099508;27;45439;-62
2021/12/09 02:25:34;;;;;;;;;25.75;22.75;;;;;3.72;66.58;99804.72;5081652;27;45347;-62
2021/12/09 02:28:00;;;;;;;;;23.00;18.75;;;;;3.70;66.30;99803.19;5099215;27;46225;-62
2021/12/09 02:30:25;;;;;;;;;25.50;20.75;;;;;3.68;66.77;99805.91;5098557;27;62279;-62
2021/12/09 02:32:50;;;;;;;;;24.50;20.25;;;;;3.67;66.70;99808.59;5098484;27;69221;-61
2021/12/09 02:35:16;;;;;;;;;28.50;20.75;;;;;3.68;66.70;99810.25;5099047;27;48600;-61
2021/12/09 02:37:42;;;;;;;;;22.00;17.75;;;;;3.67;66.85;99809.44;5080038;27;62793;-61
2021/12/09 02:40:08;;;;;;;;;20.25;18.75;;;;;3.68;66.83;99811.09;5081102;27;45339;-61
2021/12/09 02:42:34;;;;;;;;;22.75;17.00;;;;;3.69;66.80;99804.97;5080665;27;45388;-61
2021/12/09 02:45:00;;;;;;;;;17.25;16.50;;;;;3.71;66.83;99805.66;5080628;27;48173;-61
2021/12/09 02:47:25;;;;;;;;;20.25;17.00;;;;;3.73;66.75;99808.16;5098984;27;45259;-61
2021/12/09 02:49:50;;;;;;;;;17.25;11.00;;;;;3.74;66.82;99803.78;5061733;27;63086;-62
2021/12/09 02:52:16;;;;;;;;;20.50;13.00;;;;;3.76;66.93;99812.28;5098769;27;45399;-61
2021/12/09 02:54:41;;;;;;;;;8.25;7.25;;;;;3.77;67.22;99811.34;5098596;27;45487;-61
2021/12/09 02:57:07;;;;;;;;;12.00;7.75;;;;;3.75;67.20;99806.28;5097852;27;62973;-62
2021/12/09 02:59:32;;;;;;;;;9.25;7.75;;;;;3.75;67.28;99801.09;5098922;27;45342;-61
2021/12/09 03:01:58;;;;;;;;;9.75;8.50;;;;;3.77;67.06;99807.00;5080848;27;45447;-61
2021/12/09 03:04:36;;;;;;;;;13.50;13.00;;;;;3.77;67.02;99809.59;5098582;27;46004;-61
2021/12/09 03:07:01;;;;;;;;;6.00;6.00;;;;;3.79;67.29;99810.31;5080560;27;45846;-61
2021/12/09 03:09:28;;;;;;;;;4.50;3.25;;;;;3.82;67.29;99801.47;5098808;27;45835;-61
2021/12/09 03:11:55;;;;;;;;;5.75;5.75;;;;;3.82;67.84;99807.50;5098929;27;45255;-61
2021/12/09 03:14:22;;;;;;;;;6.00;4.25;;;;;3.85;67.80;99806.44;5063578;27;47071;-61
2021/12/09 03:16:47;;;;;;;;;5.75;3.00;;;;;3.89;67.56;99818.28;5080222;27;46066;-61
2021/12/09 03:19:12;;;;;;;;;8.50;3.00;;;;;3.91;67.38;99824.19;5098577;27;45798;-61
2021/12/09 03:21:42;;;;;;;;;3.00;3.00;;;;;3.94;67.53;99820.56;5097698;27;65575;-61
2021/12/09 03:24:09;;;;;;;;;3.00;3.00;;;;;3.96;67.68;99824.69;5080065;27;51285;-62
2021/12/09 03:26:38;;;;;;;;;6.50;4.00;;;;;3.98;67.53;99824.56;5080182;27;45291;-61
2021/12/09 03:29:05;;;;;;;;;4.00;3.00;;;;;3.99;67.60;99827.06;5098363;27;45414;-61
2021/12/09 03:31:30;;;;;;;;;6.00;2.50;;;;;4.00;67.79;99831.34;5080193;27;45495;-61
2021/12/09 03:33:56;;;;;;;;;5.00;3.00;;;;;4.03;67.42;99834.66;5098257;27;45416;-61
2021/12/09 03:36:25;;;;;;;;;6.25;6.25;;;;;4.05;67.76;99837.97;5078821;27;70255;-62
2021/12/09 03:38:51;;;;;;;;;2.00;2.00;;;;;4.06;67.51;99835.25;5098253;27;45508;-61
2021/12/09 03:41:16;;;;;;;;;2.00;2.00;;;;;4.09;67.24;99839.41;5098197;27;45324;-61
2021/12/09 03:43:42;;;;;;;;;3.00;3.00;;;;;4.10;67.35;99825.47;5096859;27;75703;-61
2021/12/09 03:46:07;;;;;;;;;2.25;2.25;;;;;4.11;67.55;99830.53;5096820;27;72310;-61
2021/12/09 03:48:32;;;;;;;;;2.75;2.25;;;;;4.13;67.22;99838.25;5097623;27;60934;-62
2021/12/09 03:50:58;;;;;;;;;3.75;2.00;;;;;4.15;67.20;99844.16;5079552;27;47918;-61
2021/12/09 03:53:23;;;;;;;;;3.00;2.00;;;;;4.16;67.18;99845.81;5097028;27;66616;-61
2021/12/09 03:55:49;;;;;;;;;4.00;4.00;;;;;4.16;67.24;99845.81;5097937;27;45331;-61
2021/12/09 03:58:14;;;;;;;;;4.25;3.00;;;;;4.16;67.63;99851.84;5079725;27;45327;-61
2021/12/09 04:00:40;;;;;;;;;4.75;3.75;;;;;4.18;67.37;99849.16;5078941;27;48971;-61
2021/12/09 04:03:05;;;;;;;;;8.00;3.00;;;;;4.20;67.31;99852.47;5097610;27;47313;-61
2021/12/09 04:05:31;;;;;;;;;2.50;2.50;;;;;4.21;67.56;99848.94;5079528;27;45435;-61
2021/12/09 04:07:56;;;;;;;;;6.00;2.00;;;;;4.21;67.25;99859.31;5097315;27;56984;-61
2021/12/09 04:10:22;;;;;;;;;8.75;3.00;;;;;4.23;67.46;99862.66;5079481;27;45423;-62
2021/12/09 04:12:47;;;;;;;;;2.75;2.00;;;;;4.25;67.44;99865.94;5096816;27;65792;-62
2021/12/09 04:15:12;;;;;;;;;3.00;2.00;;;;;4.27;67.18;99856.25;5096852;27;65380;-61
2021/12/09 04:17:38;;;;;;;;;4.50;3.25;;;;;4.29;67.48;99856.97;5096859;27;61748;-61
2021/12/09 04:20:04;;;;;;;;;5.00;3.00;;;;;4.31;67.36;99849.06;5096776;27;62296;-61
2021/12/09 04:22:30;;;;;;;;;3.00;2.25;;;;;4.32;67.32;99853.34;5079194;27;45517;-61
2021/12/09 04:24:55;;;;;;;;;3.25;2.50;;;;;4.33;67.20;99856.75;5096535;27;68664;-62
2021/12/09 04:27:20;;;;;;;;;2.00;2.00;;;;;4.35;67.18;99849.66;5078333;27;63729;-61
2021/12/09 04:29:46;;;;;;;;;3.00;1.00;;;;;4.36;67.00;99856.53;5079032;27;45955;-62
2021/12/09 04:32:11;;;;;;;;;3.00;3.00;;;;;4.38;67.15;99852.03;5096460;27;68651;-61
2021/12/09 04:34:36;;;;;;;;;4.25;1.25;;;;;4.39;67.10;99853.69;5061773;27;45389;-61
2021/12/09 04:37:02;;;;;;;;;2.50;2.50;;;;;4.37;67.08;99859.03;5096856;27;58294;-61
2021/12/09 04:39:28;;;;;;;;;3.00;3.00;;;;;4.39;67.34;99866.69;5097273;27;45335;-61
2021/12/09 04:41:54;;;;;;;;;5.25;3.00;;;;;4.38;67.09;99859.84;5078588;27;46156;-61
2021/12/09 04:44:20;;;;;;;;;6.75;2.75;;;;;4.40;67.16;99860.56;5079231;27;45875;-61
2021/12/09 04:46:45;;;;;;;;;2.00;2.00;;;;;4.40;67.14;99865.75;5097301;27;45469;-61
2021/12/09 04:49:10;;;;;;;;;2.00;1.75;;;;;4.41;67.20;99868.28;5097186;27;45267;-62
2021/12/09 04:51:36;;;;;;;;;6.00;2.75;;;;;4.41;66.99;99864.81;5096119;27;71837;-61
2021/12/09 04:54:03;;;;;;;;;4.00;4.00;;;;;4.41;67.19;99864.81;5077997;27;45338;-61
2021/12/09 04:56:28;;;;;;;;;6.25;3.00;;;;;4.43;67.10;99862.94;5097073;27;45227;-62
2021/12/09 04:58:54;;;;;;;;;3.75;3.00;;;;;4.44;66.88;99867.19;5078907;27;45235;-62
2021/12/09 05:01:19;;;;;;;;;5.50;3.00;;;;;4.43;67.19;99868.97;5077644;27;69892;-61
2021/12/09 05:03:47;;;;;;;;;9.00;3.00;;;;;4.45;67.25;99874.91;5078812;27;45523;-61
2021/12/09 05:06:13;;;;;;;;;4.00;3.00;;;;;4.45;66.94;99872.31;5079168;27;45505;-61
2021/12/09 05:08:44;;;;;;;;;7.50;3.75;;;;;4.49;67.16;99865.09;5061163;27;60097;-62
2021/12/09 05:11:54;;;;;;;;;6.75;3.00;;;;;4.50;67.02;99868.53;5096810;27;45944;-61
2021/12/09 05:13:55;;;;;;;;;6.00;2.50;;;;;4.50;66.94;99858.94;5089035;27;45771;-61
2021/12/09 05:16:20;;;;;;;;;3.00;2.00;;;;;4.52;66.90;99864.88;5100564;27;45437;-61
2021/12/09 05:18:46;;;;;;;;;4.00;4.00;;;;;4.54;66.98;99870.78;5099461;27;67441;-61
2021/12/09 05:21:12;;;;;;;;;5.50;3.25;;;;;4.55;66.96;99867.25;5100419;27;45278;-61
2021/12/09 05:23:38;;;;;;;;;2.50;2.00;;;;;4.56;66.98;99861.09;5065473;27;45763;-61
2021/12/09 05:26:03;;;;;;;;;3.00;2.00;;;;;4.57;67.04;99865.34;5100428;27;45346;-61
2021/12/09 05:28:35;;;;;;;;;6.00;4.00;;;;;4.58;66.57;99864.41;5082124;27;45534;-61
2021/12/09 05:33:44;;;;;;;;;3.75;3.00;;;;;4.63;66.56;99866.66;5084704;27;45362;-61
2021/12/09 05:36:09;;;;;;;;;4.50;4.50;;;;;4.64;66.71;99867.50;5100352;27;45433;-61
2021/12/09 05:38:35;;;;;;;;;3.00;2.00;;;;;4.66;66.72;99878.63;5100093;27;45542;-62
2021/12/09 05:41:00;;;;;;;;;6.25;2.25;;;;;4.67;66.63;99885.50;5099099;27;73284;-62
2021/12/09 05:43:26;;;;;;;;;3.50;3.00;;;;;4.67;66.50;99877.69;5080642;27;71305;-61
2021/12/09 05:45:51;;;;;;;;;5.50;3.00;;;;;4.67;66.78;99886.31;5081861;27;45443;-61
2021/12/09 05:48:17;;;;;;;;;4.00;2.25;;;;;4.66;66.83;99884.66;5100001;27;45220;-61
2021/12/09 05:50:42;;;;;;;;;6.75;3.25;;;;;4.66;66.56;99889.84;5099923;27;45374;-62
2021/12/09 05:53:07;;;;;;;;;4.00;2.00;;;;;4.67;66.66;99901.09;5064219;27;54077;-61
2021/12/09 05:55:33;;;;;;;;;3.25;2.50;;;;;4.68;66.66;99889.75;5081771;27;45803;-61
2021/12/09 05:57:59;;;;;;;;;6.50;5.75;;;;;4.68;66.59;99885.38;5099764;27;45339;-61
2021/12/09 06:00:24;;;;;;;;;3.25;2.75;;;;;4.68;66.90;99900.16;5080530;27;65450;-61
2021/12/09 06:02:49;;;;;;;;;3.00;3.00;;;;;4.69;66.82;99902.63;5098605;27;65046;-62
2021/12/09 06:05:15;;;;;;;;;6.00;3.25;;;;;4.69;66.52;99900.03;5098732;27;68324;-62
2021/12/09 06:07:40;;;;;;;;;3.00;2.75;;;;;4.71;66.68;99899.94;5081079;27;47989;-61
2021/12/09 06:10:06;;;;;;;;;3.50;3.00;;;;;4.73;66.66;99903.25;5099472;27;45542;-62
2021/12/09 06:12:32;;;;;;;;;3.25;2.00;;;;;4.71;66.34;99897.34;5081232;27;45458;-61
2021/12/09 06:14:57;;;;;;;;;7.00;5.00;;;;;4.71;66.45;99905.97;5099419;27;45391;-61
2021/12/09 06:17:23;;;;;;;;;6.00;4.00;;;;;4.73;66.43;99913.66;5099356;27;45380;-61
2021/12/09 06:19:48;;;;;;;;;7.00;4.00;;;;;4.73;66.22;99916.28;5080874;27;48203;-62
2021/12/09 06:22:13;;;;;;;;;5.00;3.00;;;;;4.73;66.84;99919.69;5080568;27;49727;-61
2021/12/09 06:24:39;;;;;;;;;4.25;4.00;;;;;4.72;66.62;99930.22;5080215;27;54200;-61
2021/12/09 06:27:06;;;;;;;;;4.00;3.75;;;;;4.72;66.52;99925.03;5080872;27;45348;-61
2021/12/09 06:29:32;;;;;;;;;4.00;4.00;;;;;4.73;66.21;99921.47;5098938;27;45345;-61
2021/12/09 06:31:57;;;;;;;;;8.75;7.00;;;;;4.72;66.29;99925.03;5098695;27;45312;-61
2021/12/09 06:34:23;;;;;;;;;6.50;5.00;;;;;4.72;66.56;99925.84;5098242;27;64717;-62
2021/12/09 06:36:48;;;;;;;;;9.50;6.50;;;;;4.72;66.43;99925.84;5098097;27;61512;-61
2021/12/09 06:39:13;;;;;;;;;10.50;6.00;;;;;4.71;66.45;99920.75;5097866;27;60709;-61
2021/12/09 06:41:39;;;;;;;;;6.25;4.00;;;;;4.72;66.67;99925.03;5098884;27;45280;-61
2021/12/09 06:44:05;;;;;;;;;4.00;4.00;;;;;4.73;66.58;99924.09;5079421;27;63919;-61
2021/12/09 06:46:30;;;;;;;;;8.25;6.50;;;;;4.72;66.35;99920.63;5098564;27;45438;-61
2021/12/09 06:48:57;;;;;;;;;10.75;6.50;;;;;4.73;66.38;99921.47;5098417;27;47370;-61
2021/12/09 06:51:22;;;;;;;;;6.00;6.00;;;;;4.72;66.62;99919.81;5098521;27;45435;-61
2021/12/09 06:53:48;;;;;;;;;9.75;8.00;;;;;4.73;66.63;99924.09;5098834;27;45377;-61
2021/12/09 06:56:13;;;;;;;;;7.75;6.00;;;;;4.72;66.39;99931.03;5063285;27;45557;-61
2021/12/09 06:58:38;;;;;;;;;10.00;8.75;;;;;4.71;66.84;99932.00;5096975;27;46259;-61
2021/12/09 07:01:04;;;;;;;;;8.00;6.75;;;;;4.71;66.80;99934.59;5095806;27;59947;-61
2021/12/09 07:03:29;;;;;;;;;11.25;5.00;;;;;4.71;66.38;99933.78;5097800;27;45438;-61
2021/12/09 07:05:56;;;;;;;;;9.50;7.00;;;;;4.70;66.44;99935.53;5097852;27;45469;-61
2021/12/09 07:08:21;;;;;;;;;8.25;6.25;;;;;4.70;66.55;99938.13;5079597;27;46129;-61
2021/12/09 07:10:47;;;;;;;;;10.00;9.50;;;;;4.71;66.28;99938.97;5097935;27;45458;-61
2021/12/09 07:13:12;;;;;;;;;14.00;8.75;;;;;4.70;66.57;99943.34;5079493;27;45441;-61
2021/12/09 07:15:38;;;;;;;;;8.00;8.00;;;;;4.69;66.53;99941.69;5080153;27;45633;-61
2021/12/09 07:18:03;;;;;;;;;6.75;6.75;;;;;4.67;66.33;99937.53;5098282;27;46159;-61
2021/12/09 07:20:29;;;;;;;;;12.50;8.50;;;;;4.67;66.50;99935.75;5062435;27;45374;-61
2021/12/09 07:22:54;;;;;;;;;7.50;7.50;;;;;4.67;66.55;99932.34;5098312;27;45303;-61
2021/12/09 07:25:21;;;;;;;;;9.00;6.75;;;;;4.66;66.60;99931.50;5098311;27;45454;-61
2021/12/09 07:27:46;;;;;;;;;9.75;9.75;;;;;4.65;66.35;99934.22;5079592;27;47273;-61
2021/12/09 07:30:12;;;;;;;;;9.00;9.00;;;;;4.63;66.53;99931.72;5063092;27;45388;-62
2021/12/09 07:32:37;;;;;;;;;10.75;8.25;;;;;4.60;66.76;99922.38;5098051;27;45424;-61
2021/12/09 07:35:04;;;;;;;;;9.25;7.00;;;;;4.61;66.81;99923.19;5096993;27;53229;-61
2021/12/09 07:37:29;;;;;;;;;13.00;8.00;;;;;4.61;66.61;99923.19;5097598;27;51600;-61
2021/12/09 07:39:54;;;;;;;;;9.00;7.25;;;;;4.59;66.66;99925.91;5097642;27;45374;-61
2021/12/09 07:42:20;;;;;;;;;10.75;6.50;;;;;4.59;66.80;99925.91;5061727;27;66138;-61
2021/12/09 07:44:45;;;;;;;;;7.00;7.00;;;;;4.57;66.68;99927.81;5098152;27;45350;-61
2021/12/09 07:47:11;;;;;;;;;12.25;7.00;;;;;4.57;66.84;99925.19;5097778;27;46336;-61
2021/12/09 07:49:36;;;;;;;;;12.50;8.00;;;;;4.58;66.98;99929.47;5097178;27;60874;-61
2021/12/09 07:52:04;;;;;;;;;10.00;7.50;;;;;4.59;66.79;99925.06;5096917;27;66382;-62
2021/12/09 07:54:29;;;;;;;;;9.75;8.75;;;;;4.58;66.81;99931.22;5062808;27;45534;-61
2021/12/09 07:56:54;;;;;;;;;10.25;6.75;;;;;4.57;66.56;99935.59;5096627;27;71072;-61
2021/12/09 07:59:20;;;;;;;;;9.00;9.00;;;;;4.57;66.80;99935.59;5079145;27;45308;-61
2021/12/09 08:01:45;;;;;;;;;6.50;2.00;;;;;4.56;66.46;99925.28;5097707;27;45843;-62
2021/12/09 08:04:11;;;;;;;;;8.75;8.00;;;;;4.55;66.59;99929.69;5097684;27;45549;-62
2021/12/09 08:06:36;;;;;;;;;7.75;6.75;;;;;4.54;66.62;99928.03;5096990;27;49799;-61
2021/12/09 08:09:03;;;;;;;;;13.00;9.00;;;;;4.55;66.52;99927.09;5078702;27;60315;-61
2021/12/09 08:11:28;;;;;;;;;7.75;6.25;;;;;4.54;66.56;99941.03;5097706;27;45407;-61
2021/12/09 08:13:54;;;;;;;;;14.00;9.00;;;;;4.52;66.74;99936.88;5096654;27;61589;-61
2021/12/09 08:16:19;;;;;;;;;8.75;6.00;;;;;4.52;66.72;99935.13;5096965;27;45308;-61
2021/12/09 08:18:54;;;;;;;;;9.00;7.75;;;;;4.53;66.75;99949.78;5097008;27;45308;-61
2021/12/09 08:21:20;;;;;;;;;13.50;9.75;;;;;4.54;66.74;99946.25;5080319;27;45339;-61
2021/12/09 08:23:46;;;;;;;;;16.00;12.00;;;;;4.57;66.89;99939.97;5096666;27;45231;-61
2021/12/09 08:26:11;;;;;;;;;14.00;10.25;;;;;4.60;66.80;99950.16;5078447;27;46247;-61
2021/12/09 08:28:37;;;;;;;;;15.00;9.00;;;;;4.60;66.61;99940.59;5096230;27;67669;-61
2021/12/09 08:31:02;;;;;;;;;12.00;9.25;;;;;4.64;66.71;99945.56;5096299;27;59613;-61
2021/12/09 08:33:27;;;;;;;;;11.25;9.50;;;;;4.65;66.73;99953.25;5077883;27;68733;-61
2021/12/09 08:35:53;;;;;;;;;14.25;12.00;;;;;4.68;66.87;99949.63;5072828;27;46593;-61
2021/12/09 08:38:18;;;;;;;;;12.25;10.00;;;;;4.72;66.82;99945.84;5064849;27;45496;-61
2021/12/09 08:40:45;;;;;;;;;13.75;11.25;;;;;4.74;66.67;99949.97;5064889;27;63807;-61
2021/12/09 08:43:11;;;;;;;;;16.25;11.50;;;;;4.78;66.36;99944.56;5056945;27;45436;-61
2021/12/09 08:45:36;;;;;;;;;13.50;9.50;;;;;4.77;66.37;99938.50;5075550;27;45371;-61
2021/12/09 08:48:01;;;;;;;;;12.50;9.50;;;;;4.79;66.53;99944.41;5073752;27;45426;-61
2021/12/09 08:50:32;;;;;;;;;13.50;10.25;;;;;4.81;66.63;99950.34;5074689;27;59448;-61
2021/12/09 08:52:58;;;;;;;;;9.50;9.50;;;;;4.84;66.29;99955.31;5075105;27;45235;-61
2021/12/09 08:55:23;;;;;;;;;12.75;11.25;;;;;4.87;66.54;99960.31;5056793;27;48380;-62
2021/12/09 08:57:49;;;;;;;;;9.00;9.00;;;;;4.89;66.08;99962.81;5074108;27;52547;-61
2021/12/09 09:00:15;;;;;;;;;12.50;11.00;;;;;4.90;65.84;99961.88;5076286;27;45479;-61
2021/12/09 09:02:42;;;;;;;;;13.50;12.25;;;;;4.93;65.81;99968.59;5058137;27;45429;-61
2021/12/09 09:05:10;;;;;;;;;13.00;9.25;;;;;4.90;65.61;99975.69;5073168;27;46371;-61
2021/12/09 09:07:46;;;;;;;;;13.75;9.25;;;;;4.93;65.61;99979.88;5052695;27;45903;-61
2021/12/09 09:10:12;;;;;;;;;14.00;11.50;;;;;4.96;65.69;99981.41;5050069;27;45289;-62
2021/12/09 09:12:38;;;;;;;;;14.00;11.50;;;;;4.98;66.02;99988.19;5075688;27;45387;-61
2021/12/09 09:15:10;;;;;;;;;14.50;13.00;;;;;5.03;66.00;99987.81;5074499;27;46476;-61
2021/12/09 09:17:35;;;;;;;;;11.50;11.50;;;;;5.07;65.65;99997.06;5075307;27;47238;-61
2021/12/09 09:20:01;;;;;;;;;25.75;16.00;;;;;5.12;65.84;99994.09;5075114;27;45502;-61
2021/12/09 09:22:27;;;;;;;;;15.25;12.25;;;;;5.18;65.71;99991.06;5074789;27;45481;-62
2021/12/09 09:24:52;;;;;;;;;13.50;12.50;;;;;5.22;65.54;99992.47;5073613;27;66844;-61
2021/12/09 09:27:18;;;;;;;;;14.50;13.75;;;;;5.28;65.34;99999.03;5070169;27;45501;-61
2021/12/09 09:29:43;;;;;;;;;19.75;14.00;;;;;5.33;65.55;100002.94;5074480;27;45494;-62
2021/12/09 09:32:11;;;;;;;;;13.25;12.75;;;;;5.40;65.37;99999.88;5058143;28;46291;-61
2021/12/09 09:34:36;;;;;;;;;19.25;13.00;;;;;5.49;65.26;100007.00;5074452;27;45459;-61
2021/12/09 09:37:04;;;;;;;;;17.75;13.00;;;;;5.61;65.32;100007.84;5079006;27;47405;-61
2021/12/09 09:39:31;;;;;;;;;21.25;14.25;;;;;5.79;65.08;100013.41;5074512;27;45396;-62
2021/12/09 09:42:06;;;;;;;;;13.75;13.50;;;;;5.99;64.90;100004.03;5072843;28;45305;-62
2021/12/09 09:44:45;;;;;;;;;12.50;10.00;;;;;6.22;64.40;99998.84;5035373;28;46160;-62
2021/12/09 09:47:10;;;;;;;;;16.50;13.75;;;;;6.47;63.91;100004.72;5039543;28;45350;-61
2021/12/09 09:49:35;;;;;;;;;13.00;11.00;;;;;6.67;63.25;100009.16;5052302;28;62621;-62
2021/12/09 09:52:01;;;;;;;;;16.75;14.25;;;;;6.85;63.08;100008.63;5054310;28;45486;-62
2021/12/09 09:54:26;;;;;;;;;16.25;15.00;;;;;7.04;62.52;100012.34;5054888;28;46406;-62
2021/12/09 09:56:52;;;;;;;;;15.50;11.50;;;;;7.25;62.18;100018.41;5053902;28;65466;-61
2021/12/09 09:59:17;;;;;;;;;15.25;13.25;;;;;7.45;61.61;100015.91;5053981;28;45482;-61
2021/12/09 10:01:43;;;;;;;;;29.00;24.75;;;;;7.67;61.27;100021.94;5057973;28;45483;-62
2021/12/09 10:04:22;;;;;;;;;18.75;13.50;;;;;7.88;60.86;100024.53;5055951;28;49060;-62
2021/12/09 10:06:47;;;;;;;;;17.00;13.00;;;;;8.12;60.33;100015.53;5047601;28;45359;-62
2021/12/09 10:09:14;;;;;;;;;12.75;10.75;;;;;8.36;59.59;100019.59;5050839;28;45440;-62
2021/12/09 10:11:39;;;;;;;;;17.25;12.75;;;;;8.56;59.22;100020.47;5045215;28;45286;-62
2021/12/09 10:14:16;;;;;;;;;10.50;10.50;;;;;8.73;58.62;100019.81;5046848;28;45582;-62
2021/12/09 10:16:42;;;;;;;;;16.75;13.50;;;;;8.91;58.10;100016.50;5032476;28;46466;-62
2021/12/09 10:19:21;;;;;;;;;14.50;12.25;;;;;9.00;57.88;100014.84;5037625;28;45532;-61
2021/12/09 10:21:46;;;;;;;;;14.25;12.75;;;;;9.09;57.23;100013.19;5057940;28;45459;-61
2021/12/09 10:24:12;;;;;;;;;15.25;12.75;;;;;9.16;56.65;100009.03;5034501;28;45539;-62
2021/12/09 10:26:48;;;;;;;;;17.75;13.00;;;;;9.25;56.96;100002.16;5056864;28;45334;-62
2021/12/09 10:29:35;;;;;;;;;14.75;13.25;;;;;9.34;56.68;100001.28;5065704;28;45313;-61
2021/12/09 10:32:03;;;;;;;;;18.50;14.00;;;;;9.45;56.39;99990.63;5038949;28;45325;-62
2021/12/09 10:37:02;;;;;;;;;17.00;15.00;;;;;9.55;55.65;99990.59;5056665;28;45890;-62
2021/12/09 10:39:31;;;;;;;;;17.75;13.50;;;;;9.60;55.66;99977.88;5037202;28;45530;-62
2021/12/09 10:41:59;;;;;;;;;12.25;10.25;;;;;9.66;55.10;99976.50;5041473;27;45407;-62
2021/12/09 10:44:31;;;;;;;;;11.25;10.50;;;;;9.68;55.14;99976.34;5058404;27;46454;-62
2021/12/09 10:47:06;;;;;;;;;12.00;9.25;;;;;9.71;54.58;99971.66;5083864;27;45398;-61
2021/12/09 10:49:41;;;;;;;;;10.50;8.25;;;;;9.72;54.74;99967.22;5059960;27;45340;-62
2021/12/09 10:52:26;;;;;;;;;8.75;7.25;;;;;9.70;54.61;99961.28;5084949;27;45309;-62
2021/12/09 10:54:52;;;;;;;;;10.75;6.50;;;;;9.70;54.83;99969.16;5094570;27;46106;-62
2021/12/09 10:57:24;;;;;;;;;10.50;7.00;;;;;9.70;54.80;99961.28;5090221;27;45349;-61
2021/12/09 10:59:50;;;;;;;;;8.50;8.00;;;;;9.69;54.66;99960.47;5089591;27;45452;-62
2021/12/09 11:02:16;;;;;;;;;14.75;11.75;;;;;9.71;54.58;99968.19;5077511;27;45603;-61
2021/12/09 11:04:41;;;;;;;;;13.25;9.50;;;;;9.70;54.47;99959.50;5076711;27;46584;-62
2021/12/09 11:07:20;;;;;;;;;12.25;8.50;;;;;9.69;54.65;99959.63;5054644;27;45448;-62
2021/12/09 11:09:45;;;;;;;;;11.50;11.25;;;;;9.66;54.47;99952.88;5076599;27;45552;-62
2021/12/09 11:12:27;;;;;;;;;15.00;10.50;;;;;9.61;54.19;99950.69;5076701;27;45393;-62
2021/12/09 11:15:00;;;;;;;;;11.50;9.75;;;;;9.58;54.42;99947.53;5075402;27;47244;-62
2021/12/09 11:17:38;;;;;;;;;11.50;10.75;;;;;9.56;54.28;99958.16;5076890;27;45540;-62
2021/12/09 11:20:04;;;;;;;;;11.25;7.50;;;;;9.56;54.08;99949.47;5085683;27;45530;-62
2021/12/09 11:22:30;;;;;;;;;8.75;8.50;;;;;9.50;54.06;99943.00;5076411;27;45408;-62
2021/12/09 11:25:00;;;;;;;;;10.75;8.50;;;;;9.51;54.10;99947.28;5076304;27;45528;-62
2021/12/09 11:27:28;;;;;;;;;10.75;8.75;;;;;9.46;54.31;99944.28;5076650;27;45256;-61
2021/12/09 11:29:59;;;;;;;;;8.75;7.00;;;;;9.41;54.29;99936.00;5076333;27;45265;-62
2021/12/09 11:32:36;;;;;;;;;9.50;7.00;;;;;9.38;54.26;99942.34;5059462;27;45271;-61
2021/12/09 11:35:12;;;;;;;;;8.75;6.25;;;;;9.35;54.70;99940.00;5079078;27;46661;-62
2021/12/09 11:37:42;;;;;;;;;7.25;7.00;;;;;9.34;54.50;99930.50;5060754;27;46507;-62
2021/12/09 11:40:24;;;;;;;;;9.25;8.00;;;;;9.33;54.79;99934.91;5067261;27;45428;-62